sensor_id;sensor_type;location;lat;lon;timestamp;pressure;altitude;pressure_sealevel;temperature;humidity
68230;BME280;55048;52.220;5.160;2023-07-08T00:00:17;101679.38;;;22.46;50.90
68230;BME280;55048;52.220;5.160;2023-07-08T00:02:46;101677.88;;;22.40;50.83
68230;BME280;55048;52.220;5.160;2023-07-08T00:05:14;101605.88;;;21.96;50.91
68230;BME280;55048;52.220;5.160;2023-07-08T00:07:41;101688.03;;;22.48;50.79
68230;BME280;55048;52.220;5.160;2023-07-08T00:10:13;101655.03;;;22.27;51.31
68230;BME280;55048;52.220;5.160;2023-07-08T00:12:39;101651.09;;;22.20;51.20
68230;BME280;55048;52.220;5.160;2023-07-08T00:15:05;101613.75;;;21.98;51.61
68230;BME280;55048;52.220;5.160;2023-07-08T00:17:30;101645.94;;;22.18;51.61
68230;BME280;55048;52.220;5.160;2023-07-08T00:19:56;101625.47;;;21.93;51.96
68230;BME280;55048;52.220;5.160;2023-07-08T00:22:21;101664.66;;;22.20;51.96
68230;BME280;55048;52.220;5.160;2023-07-08T00:24:50;101667.94;;;22.17;52.29
68230;BME280;55048;52.220;5.160;2023-07-08T00:27:16;101648.34;;;22.01;52.08
68230;BME280;55048;52.220;5.160;2023-07-08T00:29:42;101663.44;;;22.07;52.38
68230;BME280;55048;52.220;5.160;2023-07-08T00:32:13;101666.72;;;22.04;52.42
68230;BME280;55048;52.220;5.160;2023-07-08T00:34:39;101637.00;;;21.80;52.34
68230;BME280;55048;52.220;5.160;2023-07-08T00:37:05;101659.19;;;21.82;52.90
68230;BME280;55048;52.220;5.160;2023-07-08T00:39:32;101661.84;;;21.87;52.79
68230;BME280;55048;52.220;5.160;2023-07-08T00:42:00;101630.41;;;21.67;53.50
68230;BME280;55048;52.220;5.160;2023-07-08T00:44:26;101620.53;;;21.57;53.96
68230;BME280;55048;52.220;5.160;2023-07-08T00:47:02;101628.16;;;21.55;54.01
68230;BME280;55048;52.220;5.160;2023-07-08T00:49:37;101622.81;;;21.50;54.75
68230;BME280;55048;52.220;5.160;2023-07-08T00:52:20;101643.72;;;21.63;55.27
68230;BME280;55048;52.220;5.160;2023-07-08T00:54:46;101649.97;;;21.64;55.02
68230;BME280;55048;52.220;5.160;2023-07-08T00:57:13;101643.34;;;21.51;55.38
68230;BME280;55048;52.220;5.160;2023-07-08T00:59:53;101632.44;;;21.37;55.78
68230;BME280;55048;52.220;5.160;2023-07-08T01:02:23;101614.34;;;21.33;55.81
68230;BME280;55048;52.220;5.160;2023-07-08T01:05:09;101630.06;;;21.31;56.30
68230;BME280;55048;52.220;5.160;2023-07-08T01:07:38;101648.91;;;21.41;56.36
68230;BME280;55048;52.220;5.160;2023-07-08T01:10:08;101646.28;;;21.31;56.85
68230;BME280;55048;52.220;5.160;2023-07-08T01:12:41;101619.69;;;21.14;57.02
68230;BME280;55048;52.220;5.160;2023-07-08T01:15:08;101624.06;;;21.10;57.29
68230;BME280;55048;52.220;5.160;2023-07-08T01:17:35;101590.16;;;20.94;57.47
68230;BME280;55048;52.220;5.160;2023-07-08T01:20:02;101629.97;;;21.12;57.32
68230;BME280;55048;52.220;5.160;2023-07-08T01:22:36;101601.22;;;20.97;57.28
68230;BME280;55048;52.220;5.160;2023-07-08T01:25:02;101612.09;;;20.92;57.75
68230;BME280;55048;52.220;5.160;2023-07-08T01:27:35;101586.41;;;20.66;58.11
68230;BME280;55048;52.220;5.160;2023-07-08T01:30:03;101625.59;;;20.92;57.89
68230;BME280;55048;52.220;5.160;2023-07-08T01:32:34;101588.22;;;20.75;57.83
68230;BME280;55048;52.220;5.160;2023-07-08T01:35:01;101626.94;;;20.95;57.85
68230;BME280;55048;52.220;5.160;2023-07-08T01:37:30;101609.03;;;20.75;58.11
68230;BME280;55048;52.220;5.160;2023-07-08T01:39:56;101582.63;;;20.67;58.40
68230;BME280;55048;52.220;5.160;2023-07-08T01:42:22;101627.28;;;20.88;58.20
68230;BME280;55048;52.220;5.160;2023-07-08T01:44:49;101631.47;;;20.75;59.25
68230;BME280;55048;52.220;5.160;2023-07-08T01:47:17;101582.53;;;20.48;59.13
68230;BME280;55048;52.220;5.160;2023-07-08T01:49:45;101623.38;;;20.75;58.74
68230;BME280;55048;52.220;5.160;2023-07-08T01:52:12;101597.31;;;20.55;59.31
68230;BME280;55048;52.220;5.160;2023-07-08T01:54:39;101600.03;;;20.55;58.85
68230;BME280;55048;52.220;5.160;2023-07-08T01:57:04;101579.56;;;20.49;59.26
68230;BME280;55048;52.220;5.160;2023-07-08T01:59:30;101578.75;;;20.49;59.12
68230;BME280;55048;52.220;5.160;2023-07-08T02:01:55;101589.69;;;20.62;59.24
68230;BME280;55048;52.220;5.160;2023-07-08T02:04:25;101602.06;;;20.69;59.68
68230;BME280;55048;52.220;5.160;2023-07-08T02:06:56;101595.34;;;20.66;59.56
68230;BME280;55048;52.220;5.160;2023-07-08T02:09:22;101597.81;;;20.62;59.59
68230;BME280;55048;52.220;5.160;2023-07-08T02:11:48;101583.06;;;20.50;59.50
68230;BME280;55048;52.220;5.160;2023-07-08T02:14:16;101589.38;;;20.35;60.61
68230;BME280;55048;52.220;5.160;2023-07-08T02:16:42;101594.97;;;20.49;60.22
68230;BME280;55048;52.220;5.160;2023-07-08T02:19:08;101594.38;;;20.47;59.96
68230;BME280;55048;52.220;5.160;2023-07-08T02:21:34;101578.47;;;20.45;60.19
68230;BME280;55048;52.220;5.160;2023-07-08T02:26:30;101582.50;;;20.53;59.92
68230;BME280;55048;52.220;5.160;2023-07-08T02:28:58;101576.56;;;20.46;60.39
68230;BME280;55048;52.220;5.160;2023-07-08T02:31:24;101577.94;;;20.48;60.06
68230;BME280;55048;52.220;5.160;2023-07-08T02:33:53;101577.66;;;20.45;60.00
68230;BME280;55048;52.220;5.160;2023-07-08T02:36:19;101580.38;;;20.45;60.40
68230;BME280;55048;52.220;5.160;2023-07-08T02:38:44;101566.38;;;20.37;60.58
68230;BME280;55048;52.220;5.160;2023-07-08T02:41:10;101566.66;;;20.36;60.22
68230;BME280;55048;52.220;5.160;2023-07-08T02:43:39;101557.56;;;20.27;60.34
68230;BME280;55048;52.220;5.160;2023-07-08T02:46:05;101558.91;;;20.29;60.46
68230;BME280;55048;52.220;5.160;2023-07-08T02:48:30;101555.72;;;20.22;60.58
68230;BME280;55048;52.220;5.160;2023-07-08T02:51:00;101560.38;;;20.17;60.82
68230;BME280;55048;52.220;5.160;2023-07-08T02:53:26;101553.16;;;20.07;60.98
68230;BME280;55048;52.220;5.160;2023-07-08T02:55:52;101558.75;;;20.16;60.98
68230;BME280;55048;52.220;5.160;2023-07-08T02:58:17;101553.63;;;20.14;61.21
68230;BME280;55048;52.220;5.160;2023-07-08T03:00:42;101558.75;;;20.16;60.97
68230;BME280;55048;52.220;5.160;2023-07-08T03:03:08;101562.50;;;20.20;61.40
68230;BME280;55048;52.220;5.160;2023-07-08T03:05:33;101546.91;;;20.11;61.19
68230;BME280;55048;52.220;5.160;2023-07-08T03:07:59;101565.22;;;20.20;60.73
68230;BME280;55048;52.220;5.160;2023-07-08T03:10:25;101559.59;;;20.11;61.02
68230;BME280;55048;52.220;5.160;2023-07-08T03:12:50;101547.72;;;20.12;61.18
68230;BME280;55048;52.220;5.160;2023-07-08T03:15:16;101521.94;;;19.91;61.28
68230;BME280;55048;52.220;5.160;2023-07-08T03:17:41;101547.00;;;20.01;61.55
68230;BME280;55048;52.220;5.160;2023-07-08T03:20:09;101566.94;;;20.05;61.76
68230;BME280;55048;52.220;5.160;2023-07-08T03:22:35;101545.97;;;19.92;61.75
68230;BME280;55048;52.220;5.160;2023-07-08T03:25:01;101549.44;;;19.98;61.51
68230;BME280;55048;52.220;5.160;2023-07-08T03:27:27;101543.50;;;19.96;61.25
68230;BME280;55048;52.220;5.160;2023-07-08T03:29:52;101541.94;;;19.90;61.96
68230;BME280;55048;52.220;5.160;2023-07-08T03:32:18;101568.34;;;19.98;61.55
68230;BME280;55048;52.220;5.160;2023-07-08T03:34:43;101572.09;;;20.02;61.82
68230;BME280;55048;52.220;5.160;2023-07-08T03:37:09;101550.34;;;19.88;61.87
68230;BME280;55048;52.220;5.160;2023-07-08T03:39:35;101563.00;;;19.93;61.82
68230;BME280;55048;52.220;5.160;2023-07-08T03:42:01;101565.97;;;19.91;61.91
68230;BME280;55048;52.220;5.160;2023-07-08T03:44:27;101561.94;;;19.88;61.94
68230;BME280;55048;52.220;5.160;2023-07-08T03:46:52;101570.84;;;19.89;61.92
68230;BME280;55048;52.220;5.160;2023-07-08T03:49:20;101573.03;;;19.87;61.88
68230;BME280;55048;52.220;5.160;2023-07-08T03:51:49;101548.81;;;19.72;62.36
68230;BME280;55048;52.220;5.160;2023-07-08T03:54:18;101574.94;;;19.81;62.40
68230;BME280;55048;52.220;5.160;2023-07-08T03:56:44;101555.81;;;19.78;62.37
68230;BME280;55048;52.220;5.160;2023-07-08T03:59:10;101559.81;;;19.80;62.61
68230;BME280;55048;52.220;5.160;2023-07-08T04:01:36;101573.28;;;19.85;62.36
68230;BME280;55048;52.220;5.160;2023-07-08T04:04:10;101538.63;;;19.58;62.51
68230;BME280;55048;52.220;5.160;2023-07-08T04:06:36;101576.00;;;19.80;62.74
68230;BME280;55048;52.220;5.160;2023-07-08T04:09:02;101559.06;;;19.75;62.51
68230;BME280;55048;52.220;5.160;2023-07-08T04:11:27;101581.66;;;19.84;62.70
68230;BME280;55048;52.220;5.160;2023-07-08T04:13:52;101568.72;;;19.81;62.81
68230;BME280;55048;52.220;5.160;2023-07-08T04:16:19;101579.28;;;19.77;62.94
68230;BME280;55048;52.220;5.160;2023-07-08T04:18:45;101562.59;;;19.70;62.82
68230;BME280;55048;52.220;5.160;2023-07-08T04:21:11;101557.22;;;19.65;62.69
68230;BME280;55048;52.220;5.160;2023-07-08T04:23:36;101557.19;;;19.70;62.79
68230;BME280;55048;52.220;5.160;2023-07-08T04:26:02;101572.50;;;19.80;62.66
68230;BME280;55048;52.220;5.160;2023-07-08T04:28:27;101564.97;;;19.82;62.72
68230;BME280;55048;52.220;5.160;2023-07-08T04:30:53;101564.75;;;19.73;62.86
68230;BME280;55048;52.220;5.160;2023-07-08T04:33:18;101569.59;;;19.71;63.13
68230;BME280;55048;52.220;5.160;2023-07-08T04:35:44;101535.41;;;19.56;62.79
68230;BME280;55048;52.220;5.160;2023-07-08T04:38:24;101553.47;;;19.61;63.15
68230;BME280;55048;52.220;5.160;2023-07-08T04:40:50;101572.81;;;19.78;62.96
68230;BME280;55048;52.220;5.160;2023-07-08T04:43:16;101573.59;;;19.79;62.49
68230;BME280;55048;52.220;5.160;2023-07-08T04:45:45;101587.88;;;19.84;62.87
68230;BME280;55048;52.220;5.160;2023-07-08T04:48:14;101576.84;;;19.76;63.65
68230;BME280;55048;52.220;5.160;2023-07-08T04:50:44;101553.94;;;19.73;62.89
68230;BME280;55048;52.220;5.160;2023-07-08T04:53:11;101558.47;;;19.83;62.89
68230;BME280;55048;52.220;5.160;2023-07-08T04:55:38;101568.69;;;19.91;62.89
68230;BME280;55048;52.220;5.160;2023-07-08T04:58:04;101577.00;;;19.95;62.66
68230;BME280;55048;52.220;5.160;2023-07-08T05:00:29;101573.75;;;19.98;62.76
68230;BME280;55048;52.220;5.160;2023-07-08T05:02:55;101571.59;;;19.95;62.65
68230;BME280;55048;52.220;5.160;2023-07-08T05:05:21;101533.41;;;19.77;62.56
68230;BME280;55048;52.220;5.160;2023-07-08T05:07:46;101562.69;;;19.94;62.45
68230;BME280;55048;52.220;5.160;2023-07-08T05:10:11;101548.16;;;19.90;62.25
68230;BME280;55048;52.220;5.160;2023-07-08T05:12:37;101560.16;;;20.08;62.30
68230;BME280;55048;52.220;5.160;2023-07-08T05:15:03;101565.56;;;20.08;62.54
68230;BME280;55048;52.220;5.160;2023-07-08T05:17:29;101564.47;;;20.09;62.35
68230;BME280;55048;52.220;5.160;2023-07-08T05:19:55;101566.06;;;20.15;62.54
68230;BME280;55048;52.220;5.160;2023-07-08T05:22:23;101556.66;;;20.07;61.99
68230;BME280;55048;52.220;5.160;2023-07-08T05:24:51;101554.25;;;20.06;61.71
68230;BME280;55048;52.220;5.160;2023-07-08T05:27:18;101541.31;;;20.03;61.72
68230;BME280;55048;52.220;5.160;2023-07-08T05:29:46;101543.09;;;20.12;61.74
68230;BME280;55048;52.220;5.160;2023-07-08T05:32:11;101571.31;;;20.30;61.71
68230;BME280;55048;52.220;5.160;2023-07-08T05:34:37;101572.38;;;20.34;61.72
68230;BME280;55048;52.220;5.160;2023-07-08T05:37:02;101555.16;;;20.25;61.76
68230;BME280;55048;52.220;5.160;2023-07-08T05:39:29;101569.06;;;20.37;61.74
68230;BME280;55048;52.220;5.160;2023-07-08T05:41:55;101553.16;;;20.36;61.33
68230;BME280;55048;52.220;5.160;2023-07-08T05:44:21;101542.06;;;20.37;60.98
68230;BME280;55048;52.220;5.160;2023-07-08T05:46:46;101550.13;;;20.48;60.95
68230;BME280;55048;52.220;5.160;2023-07-08T05:49:12;101562.19;;;20.55;61.30
68230;BME280;55048;52.220;5.160;2023-07-08T05:51:37;101546.84;;;20.51;60.70
68230;BME280;55048;52.220;5.160;2023-07-08T05:54:03;101570.66;;;20.73;61.10
68230;BME280;55048;52.220;5.160;2023-07-08T05:56:28;101563.66;;;20.72;61.02
68230;BME280;55048;52.220;5.160;2023-07-08T05:58:55;101565.75;;;20.80;60.70
68230;BME280;55048;52.220;5.160;2023-07-08T06:01:21;101557.56;;;20.85;60.55
68230;BME280;55048;52.220;5.160;2023-07-08T06:03:47;101557.63;;;20.80;60.66
68230;BME280;55048;52.220;5.160;2023-07-08T06:06:12;101537.25;;;20.87;60.43
68230;BME280;55048;52.220;5.160;2023-07-08T06:08:38;101557.25;;;21.34;59.76
68230;BME280;55048;52.220;5.160;2023-07-08T06:11:04;101572.69;;;21.72;58.94
68230;BME280;55048;52.220;5.160;2023-07-08T06:13:29;101553.69;;;22.09;57.86
68230;BME280;55048;52.220;5.160;2023-07-08T06:15:55;101554.69;;;22.32;57.09
68230;BME280;55048;52.220;5.160;2023-07-08T06:18:20;101567.09;;;22.52;56.60
68230;BME280;55048;52.220;5.160;2023-07-08T06:20:53;101577.00;;;22.71;56.86
68230;BME280;55048;52.220;5.160;2023-07-08T06:23:19;101570.22;;;22.87;56.32
68230;BME280;55048;52.220;5.160;2023-07-08T06:28:10;101579.66;;;23.17;55.81
68230;BME280;55048;52.220;5.160;2023-07-08T06:30:35;101559.47;;;23.09;55.24
68230;BME280;55048;52.220;5.160;2023-07-08T06:33:02;101558.78;;;23.17;54.93
68230;BME280;55048;52.220;5.160;2023-07-08T06:35:27;101587.47;;;23.46;54.71
68230;BME280;55048;52.220;5.160;2023-07-08T06:37:52;101576.31;;;23.48;54.59
68230;BME280;55048;52.220;5.160;2023-07-08T06:40:18;101561.81;;;23.52;54.52
68230;BME280;55048;52.220;5.160;2023-07-08T06:42:45;101576.97;;;23.67;54.00
68230;BME280;55048;52.220;5.160;2023-07-08T06:45:18;101566.72;;;23.64;53.46
68230;BME280;55048;52.220;5.160;2023-07-08T06:47:44;101586.69;;;23.82;53.50
68230;BME280;55048;52.220;5.160;2023-07-08T06:50:10;101467.44;;;23.13;53.00
68230;BME280;55048;52.220;5.160;2023-07-08T06:52:35;101560.03;;;23.84;52.64
68230;BME280;55048;52.220;5.160;2023-07-08T06:55:06;101589.94;;;24.15;52.45
68230;BME280;55048;52.220;5.160;2023-07-08T06:57:32;101572.69;;;24.11;52.19
68230;BME280;55048;52.220;5.160;2023-07-08T06:59:58;101586.19;;;24.25;52.11
68230;BME280;55048;52.220;5.160;2023-07-08T07:02:24;101568.13;;;24.29;52.07
68230;BME280;55048;52.220;5.160;2023-07-08T07:04:49;101567.28;;;24.42;52.17
68230;BME280;55048;52.220;5.160;2023-07-08T07:07:15;101572.78;;;24.51;51.77
68230;BME280;55048;52.220;5.160;2023-07-08T07:09:40;101562.06;;;24.54;51.27
68230;BME280;55048;52.220;5.160;2023-07-08T07:12:06;101561.75;;;24.56;50.77
68230;BME280;55048;52.220;5.160;2023-07-08T07:14:32;101573.38;;;24.79;50.46
68230;BME280;55048;52.220;5.160;2023-07-08T07:16:57;101553.22;;;24.80;50.46
68230;BME280;55048;52.220;5.160;2023-07-08T07:19:23;101543.81;;;25.03;50.16
68230;BME280;55048;52.220;5.160;2023-07-08T07:21:48;101560.69;;;25.23;50.34
68230;BME280;55048;52.220;5.160;2023-07-08T07:24:14;101567.47;;;25.42;50.15
68230;BME280;55048;52.220;5.160;2023-07-08T07:26:39;101560.91;;;25.52;49.61
68230;BME280;55048;52.220;5.160;2023-07-08T07:29:05;101553.84;;;25.60;49.45
68230;BME280;55048;52.220;5.160;2023-07-08T07:31:30;101559.31;;;25.77;48.99
68230;BME280;55048;52.220;5.160;2023-07-08T07:33:58;101563.97;;;25.77;48.70
68230;BME280;55048;52.220;5.160;2023-07-08T07:36:23;101556.25;;;25.87;48.20
68230;BME280;55048;52.220;5.160;2023-07-08T07:38:49;101542.19;;;25.85;48.04
68230;BME280;55048;52.220;5.160;2023-07-08T07:41:14;101554.66;;;25.86;47.64
68230;BME280;55048;52.220;5.160;2023-07-08T07:43:40;101543.75;;;25.95;47.49
68230;BME280;55048;52.220;5.160;2023-07-08T07:46:05;101571.09;;;26.25;47.33
68230;BME280;55048;52.220;5.160;2023-07-08T07:48:32;101578.63;;;26.45;47.62
68230;BME280;55048;52.220;5.160;2023-07-08T07:50:57;101528.25;;;26.34;46.65
68230;BME280;55048;52.220;5.160;2023-07-08T07:53:23;101566.50;;;26.72;46.95
68230;BME280;55048;52.220;5.160;2023-07-08T07:55:56;101559.34;;;26.88;46.55
68230;BME280;55048;52.220;5.160;2023-07-08T07:58:21;101537.31;;;26.93;46.29
68230;BME280;55048;52.220;5.160;2023-07-08T08:00:47;101538.56;;;27.05;45.64
68230;BME280;55048;52.220;5.160;2023-07-08T08:03:12;101541.22;;;27.13;45.18
68230;BME280;55048;52.220;5.160;2023-07-08T08:05:37;101540.97;;;27.27;45.34
68230;BME280;55048;52.220;5.160;2023-07-08T08:08:03;101542.34;;;27.42;45.72
68230;BME280;55048;52.220;5.160;2023-07-08T08:10:29;101552.31;;;27.59;45.63
68230;BME280;55048;52.220;5.160;2023-07-08T08:12:55;101544.84;;;27.68;44.84
68230;BME280;55048;52.220;5.160;2023-07-08T08:15:21;101542.63;;;27.82;44.77
68230;BME280;55048;52.220;5.160;2023-07-08T08:17:47;101538.75;;;27.83;44.07
68230;BME280;55048;52.220;5.160;2023-07-08T08:20:14;101544.50;;;27.90;43.68
68230;BME280;55048;52.220;5.160;2023-07-08T08:22:40;101551.47;;;28.00;44.20
68230;BME280;55048;52.220;5.160;2023-07-08T08:25:05;101550.69;;;28.12;44.10
68230;BME280;55048;52.220;5.160;2023-07-08T08:27:31;101553.00;;;28.22;43.67
68230;BME280;55048;52.220;5.160;2023-07-08T08:29:57;101549.25;;;28.27;43.56
68230;BME280;55048;52.220;5.160;2023-07-08T08:32:22;101556.66;;;28.26;42.89
68230;BME280;55048;52.220;5.160;2023-07-08T08:34:48;101564.13;;;28.38;42.64
68230;BME280;55048;52.220;5.160;2023-07-08T08:37:13;101551.72;;;28.40;42.39
68230;BME280;55048;52.220;5.160;2023-07-08T08:39:39;101551.38;;;28.54;42.34
68230;BME280;55048;52.220;5.160;2023-07-08T08:42:10;101553.78;;;28.68;41.95
68230;BME280;55048;52.220;5.160;2023-07-08T08:44:38;101567.34;;;28.89;42.05
68230;BME280;55048;52.220;5.160;2023-07-08T08:47:12;101571.34;;;29.04;42.27
68230;BME280;55048;52.220;5.160;2023-07-08T08:49:52;101562.56;;;29.10;42.41
68230;BME280;55048;52.220;5.160;2023-07-08T08:52:19;101582.38;;;29.32;41.70
68230;BME280;55048;52.220;5.160;2023-07-08T08:54:45;101572.56;;;29.31;41.08
68230;BME280;55048;52.220;5.160;2023-07-08T08:57:41;101578.56;;;29.48;41.63
68230;BME280;55048;52.220;5.160;2023-07-08T09:00:09;101567.69;;;29.64;41.10
68230;BME280;55048;52.220;5.160;2023-07-08T09:02:42;101573.94;;;29.77;39.19
68230;BME280;55048;52.220;5.160;2023-07-08T09:05:13;101566.53;;;29.65;40.69
68230;BME280;55048;52.220;5.160;2023-07-08T09:07:47;101570.81;;;29.79;39.91
68230;BME280;55048;52.220;5.160;2023-07-08T09:13:03;101561.88;;;29.94;39.57
68230;BME280;55048;52.220;5.160;2023-07-08T09:15:31;101562.94;;;30.05;38.82
68230;BME280;55048;52.220;5.160;2023-07-08T09:18:10;101573.94;;;30.21;39.28
68230;BME280;55048;52.220;5.160;2023-07-08T09:20:39;101559.09;;;30.22;39.33
68230;BME280;55048;52.220;5.160;2023-07-08T09:23:16;101564.94;;;30.36;39.51
68230;BME280;55048;52.220;5.160;2023-07-08T09:25:59;101562.63;;;30.54;38.87
68230;BME280;55048;52.220;5.160;2023-07-08T09:28:54;101578.22;;;30.66;38.81
68230;BME280;55048;52.220;5.160;2023-07-08T09:31:23;101573.53;;;30.66;38.55
68230;BME280;55048;52.220;5.160;2023-07-08T09:33:54;101573.28;;;30.71;39.63
68230;BME280;55048;52.220;5.160;2023-07-08T09:36:29;101556.69;;;30.68;37.98
68230;BME280;55048;52.220;5.160;2023-07-08T09:38:55;101548.81;;;30.82;38.07
68230;BME280;55048;52.220;5.160;2023-07-08T09:41:34;101561.38;;;30.99;37.37
68230;BME280;55048;52.220;5.160;2023-07-08T09:44:25;101568.75;;;31.14;38.82
68230;BME280;55048;52.220;5.160;2023-07-08T09:46:53;101558.50;;;31.11;37.66
68230;BME280;55048;52.220;5.160;2023-07-08T09:49:27;101556.19;;;31.13;38.68
68230;BME280;55048;52.220;5.160;2023-07-08T09:51:53;101556.31;;;31.36;37.76
68230;BME280;55048;52.220;5.160;2023-07-08T09:54:20;101564.72;;;31.63;37.31
68230;BME280;55048;52.220;5.160;2023-07-08T09:56:57;101564.50;;;31.71;37.03
68230;BME280;55048;52.220;5.160;2023-07-08T09:59:28;101559.63;;;31.65;36.72
68230;BME280;55048;52.220;5.160;2023-07-08T10:01:59;101554.63;;;31.70;36.60
68230;BME280;55048;52.220;5.160;2023-07-08T10:04:24;101537.22;;;31.82;36.62
68230;BME280;55048;52.220;5.160;2023-07-08T10:06:50;101563.97;;;32.05;36.30
68230;BME280;55048;52.220;5.160;2023-07-08T10:09:20;101573.19;;;32.16;36.09
68230;BME280;55048;52.220;5.160;2023-07-08T10:11:58;101574.84;;;32.20;35.31
68230;BME280;55048;52.220;5.160;2023-07-08T10:14:31;101580.59;;;32.35;35.44
68230;BME280;55048;52.220;5.160;2023-07-08T10:16:57;101570.53;;;32.42;35.37
68230;BME280;55048;52.220;5.160;2023-07-08T10:19:22;101575.28;;;32.45;35.42
68230;BME280;55048;52.220;5.160;2023-07-08T10:27:40;101564.72;;;32.97;34.72
68230;BME280;55048;52.220;5.160;2023-07-08T10:32:55;101557.59;;;32.96;33.66
68230;BME280;55048;52.220;5.160;2023-07-08T10:35:31;101554.31;;;33.13;34.25
68230;BME280;55048;52.220;5.160;2023-07-08T10:38:18;101556.41;;;33.23;34.32
68230;BME280;55048;52.220;5.160;2023-07-08T10:40:53;101559.16;;;33.23;34.04
68230;BME280;55048;52.220;5.160;2023-07-08T10:46:23;101548.94;;;33.24;35.18
68230;BME280;55048;52.220;5.160;2023-07-08T10:51:33;101572.22;;;33.57;35.25
68230;BME280;55048;52.220;5.160;2023-07-08T10:59:44;101549.91;;;33.69;33.46
68230;BME280;55048;52.220;5.160;2023-07-08T11:02:58;101532.31;;;33.47;33.93
68230;BME280;55048;52.220;5.160;2023-07-08T11:08:25;101551.97;;;33.79;33.76
68230;BME280;55048;52.220;5.160;2023-07-08T11:11:03;101546.69;;;33.67;33.12
68230;BME280;55048;52.220;5.160;2023-07-08T11:13:35;101544.81;;;33.74;32.38
68230;BME280;55048;52.220;5.160;2023-07-08T11:16:13;101534.53;;;33.68;32.91
68230;BME280;55048;52.220;5.160;2023-07-08T11:18:54;101529.50;;;33.81;32.59
68230;BME280;55048;52.220;5.160;2023-07-08T11:21:37;101546.31;;;34.02;32.36
68230;BME280;55048;52.220;5.160;2023-07-08T11:24:11;101538.56;;;34.15;31.22
68230;BME280;55048;52.220;5.160;2023-07-08T11:27:01;101537.84;;;34.25;32.15
68230;BME280;55048;52.220;5.160;2023-07-08T11:31:57;101533.22;;;34.40;31.47
68230;BME280;55048;52.220;5.160;2023-07-08T11:34:23;101523.44;;;34.46;30.86
68230;BME280;55048;52.220;5.160;2023-07-08T11:36:51;101540.47;;;34.55;30.00
68230;BME280;55048;52.220;5.160;2023-07-08T11:39:52;101534.59;;;34.60;29.76
68230;BME280;55048;52.220;5.160;2023-07-08T11:42:22;101528.75;;;34.72;30.49
68230;BME280;55048;52.220;5.160;2023-07-08T11:44:56;101521.56;;;34.57;28.68
68230;BME280;55048;52.220;5.160;2023-07-08T11:49:52;101522.91;;;34.85;28.87
68230;BME280;55048;52.220;5.160;2023-07-08T11:52:19;101522.91;;;34.85;28.59
68230;BME280;55048;52.220;5.160;2023-07-08T11:54:47;101508.31;;;34.91;29.16
68230;BME280;55048;52.220;5.160;2023-07-08T11:57:30;101509.56;;;34.97;28.53
68230;BME280;55048;52.220;5.160;2023-07-08T12:02:58;101514.75;;;35.10;28.66
68230;BME280;55048;52.220;5.160;2023-07-08T12:05:35;101521.50;;;35.19;28.04
68230;BME280;55048;52.220;5.160;2023-07-08T12:08:02;101510.81;;;35.14;27.69
68230;BME280;55048;52.220;5.160;2023-07-08T12:10:38;101500.91;;;35.06;26.99
68230;BME280;55048;52.220;5.160;2023-07-08T12:13:14;101516.41;;;35.21;27.48
68230;BME280;55048;52.220;5.160;2023-07-08T12:15:40;101516.44;;;35.36;27.14
68230;BME280;55048;52.220;5.160;2023-07-08T12:20:46;101514.94;;;35.49;27.24
68230;BME280;55048;52.220;5.160;2023-07-08T12:23:15;101502.25;;;35.44;26.57
68230;BME280;55048;52.220;5.160;2023-07-08T12:25:41;101493.97;;;35.44;27.44
68230;BME280;55048;52.220;5.160;2023-07-08T12:28:06;101511.03;;;35.68;27.46
68230;BME280;55048;52.220;5.160;2023-07-08T12:30:32;101492.03;;;35.56;26.34
68230;BME280;55048;52.220;5.160;2023-07-08T12:33:00;101498.34;;;35.67;26.49
68230;BME280;55048;52.220;5.160;2023-07-08T12:35:31;101500.75;;;35.75;26.34
68230;BME280;55048;52.220;5.160;2023-07-08T12:38:00;101494.81;;;35.84;27.04
68230;BME280;55048;52.220;5.160;2023-07-08T12:40:27;101473.88;;;35.80;27.74
68230;BME280;55048;52.220;5.160;2023-07-08T12:42:55;101474.66;;;35.73;27.97
68230;BME280;55048;52.220;5.160;2023-07-08T12:45:22;101477.03;;;35.78;27.14
68230;BME280;55048;52.220;5.160;2023-07-08T12:47:49;101479.81;;;35.82;27.56
68230;BME280;55048;52.220;5.160;2023-07-08T12:50:15;101491.69;;;35.82;27.05
68230;BME280;55048;52.220;5.160;2023-07-08T12:52:44;101491.69;;;35.82;27.32
68230;BME280;55048;52.220;5.160;2023-07-08T12:55:11;101490.50;;;35.87;27.53
68230;BME280;55048;52.220;5.160;2023-07-08T12:57:40;101477.81;;;35.71;27.48
68230;BME280;55048;52.220;5.160;2023-07-08T13:00:10;101491.66;;;35.93;28.08
68230;BME280;55048;52.220;5.160;2023-07-08T13:02:37;101480.22;;;35.98;28.38
68230;BME280;55048;52.220;5.160;2023-07-08T13:05:04;101481.03;;;36.02;28.13
68230;BME280;55048;52.220;5.160;2023-07-08T13:07:37;101470.31;;;35.90;26.98
68230;BME280;55048;52.220;5.160;2023-07-08T13:10:05;101473.13;;;36.15;26.95
68230;BME280;55048;52.220;5.160;2023-07-08T13:12:34;101474.28;;;35.99;26.61
68230;BME280;55048;52.220;5.160;2023-07-08T13:15:03;101472.31;;;36.03;28.04
68230;BME280;55048;52.220;5.160;2023-07-08T13:17:29;101475.47;;;36.16;28.72
68230;BME280;55048;52.220;5.160;2023-07-08T13:19:56;101478.25;;;36.16;27.66
68230;BME280;55048;52.220;5.160;2023-07-08T13:22:23;101472.31;;;36.18;27.74
68230;BME280;55048;52.220;5.160;2023-07-08T13:24:58;101481.78;;;36.35;27.65
68230;BME280;55048;52.220;5.160;2023-07-08T13:27:24;101471.13;;;36.30;27.63
68230;BME280;55048;52.220;5.160;2023-07-08T13:29:51;101460.44;;;36.24;27.53
68230;BME280;55048;52.220;5.160;2023-07-08T13:32:17;101479.00;;;36.42;26.54
68230;BME280;55048;52.220;5.160;2023-07-08T13:34:43;101469.94;;;36.31;26.46
68230;BME280;55048;52.220;5.160;2023-07-08T13:37:12;101489.69;;;36.40;26.83